createdAt,value
2022-10-31T00:01:06.447Z,22.90
2022-10-31T00:11:22.551Z,23.00
2022-10-31T00:16:26.058Z,21.60
2022-10-31T00:21:29.471Z,21.20
2022-10-31T00:26:32.893Z,21.00
2022-10-31T00:31:36.333Z,21.00
2022-10-31T00:36:39.756Z,21.40
2022-10-31T00:41:43.137Z,20.50
2022-10-31T00:46:46.573Z,20.70
2022-10-31T00:51:50.339Z,20.20
2022-10-31T00:56:53.775Z,20.50
2022-10-31T01:01:57.227Z,21.50
2022-10-31T01:07:00.763Z,19.90
2022-10-31T01:12:06.157Z,21.30
2022-10-31T01:17:09.707Z,19.40
2022-10-31T01:22:13.208Z,20.30
2022-10-31T01:27:16.580Z,20.20
2022-10-31T01:32:20.065Z,19.30
2022-10-31T01:37:23.434Z,20.70
2022-10-31T01:42:26.981Z,19.60
2022-10-31T01:47:30.358Z,20.20
2022-10-31T01:52:33.717Z,19.00
2022-10-31T01:57:37.101Z,19.60
2022-10-31T02:02:40.664Z,19.50
2022-10-31T02:07:44.314Z,18.60
2022-10-31T02:12:47.796Z,19.60
2022-10-31T02:17:51.148Z,19.30
2022-10-31T02:22:54.528Z,19.50
2022-10-31T02:27:58.141Z,19.50
2022-10-31T02:33:02.141Z,19.50
2022-10-31T02:38:05.919Z,19.70
2022-10-31T02:43:09.310Z,19.40
2022-10-31T02:48:12.709Z,19.30
2022-10-31T02:53:16.091Z,20.10
2022-10-31T03:03:27.722Z,19.50
2022-10-31T03:08:31.072Z,19.80
2022-10-31T03:13:34.465Z,19.20
2022-10-31T03:18:38.023Z,18.50
2022-10-31T03:23:41.466Z,19.60
2022-10-31T03:28:44.829Z,20.90
2022-10-31T03:33:48.189Z,19.20
2022-10-31T03:38:51.555Z,19.70
2022-10-31T03:43:54.992Z,18.30
2022-10-31T03:48:58.337Z,18.90
2022-10-31T03:54:01.724Z,18.10
2022-10-31T03:59:05.088Z,19.00
2022-10-31T04:04:08.471Z,19.00
2022-10-31T04:09:11.819Z,18.80
2022-10-31T04:14:17.213Z,18.70
2022-10-31T04:19:21.181Z,18.90
2022-10-31T04:24:24.564Z,18.90
2022-10-31T04:29:28.012Z,19.40
2022-10-31T04:34:31.417Z,18.80
2022-10-31T04:39:34.760Z,19.80
2022-10-31T04:44:38.122Z,20.50
2022-10-31T04:49:41.483Z,19.50
2022-10-31T04:54:44.833Z,19.30
2022-10-31T04:59:48.317Z,19.70
2022-10-31T05:04:51.692Z,19.90
2022-10-31T05:09:55.186Z,17.90
2022-10-31T05:14:58.584Z,18.30
2022-10-31T05:20:02.003Z,18.00
2022-10-31T05:25:05.402Z,17.60
2022-10-31T05:30:08.862Z,16.70
2022-10-31T05:35:12.313Z,17.00
2022-10-31T05:40:15.648Z,16.60
2022-10-31T05:45:19.004Z,16.40
2022-10-31T05:50:22.381Z,16.90
2022-10-31T05:55:26.691Z,16.60
2022-10-31T06:00:30.064Z,18.60
2022-10-31T06:05:33.427Z,18.30
2022-10-31T06:10:37.354Z,18.90
2022-10-31T06:15:40.732Z,20.60
2022-10-31T06:20:44.135Z,18.10
2022-10-31T06:25:47.546Z,19.80
2022-10-31T06:30:50.920Z,18.90
2022-10-31T06:35:54.408Z,19.00
2022-10-31T06:40:57.772Z,18.50
2022-10-31T06:46:01.230Z,19.00
2022-10-31T06:51:04.739Z,18.70
2022-10-31T06:56:08.117Z,18.40
2022-10-31T07:01:11.623Z,18.60
2022-10-31T07:06:23.529Z,19.10
2022-10-31T07:11:27.005Z,20.00
2022-10-31T07:16:30.513Z,20.10
2022-10-31T07:21:33.882Z,18.40
2022-10-31T07:26:37.414Z,18.90
2022-10-31T07:31:40.879Z,19.60
2022-10-31T07:36:44.282Z,19.70
2022-10-31T07:41:47.669Z,20.90
2022-10-31T07:46:51.091Z,19.60
2022-10-31T07:51:54.524Z,22.60
2022-10-31T07:56:57.879Z,24.60
2022-10-31T08:02:01.470Z,23.30
2022-10-31T08:07:04.852Z,21.60
2022-10-31T08:12:08.218Z,22.30
2022-10-31T08:17:11.577Z,32.90
2022-10-31T08:22:16.990Z,20.70
2022-10-31T08:27:20.374Z,19.50
2022-10-31T08:32:23.757Z,19.90
2022-10-31T08:37:27.121Z,19.20
2022-10-31T08:42:30.485Z,19.80
2022-10-31T08:47:33.852Z,19.00
2022-10-31T08:52:59.266Z,18.60
2022-10-31T08:58:01.134Z,18.00
2022-10-31T09:03:04.828Z,17.00
2022-10-31T09:08:13.096Z,17.20
2022-10-31T09:13:20.448Z,16.00
2022-10-31T09:18:23.966Z,16.30
2022-10-31T09:23:27.314Z,16.30
2022-10-31T09:28:30.718Z,16.20
2022-10-31T09:33:34.197Z,15.40
2022-10-31T09:38:37.559Z,15.40
2022-10-31T09:43:41.117Z,15.50
2022-10-31T09:48:44.742Z,16.20
2022-10-31T09:53:48.142Z,14.80
2022-10-31T09:58:51.518Z,14.70
2022-10-31T10:03:54.868Z,14.90
2022-10-31T10:08:58.235Z,15.30
2022-10-31T10:14:01.617Z,13.50
2022-10-31T10:19:04.996Z,14.90
2022-10-31T10:24:08.475Z,14.30
2022-10-31T10:29:11.846Z,13.60
2022-10-31T10:34:15.309Z,13.90
2022-10-31T10:39:18.660Z,13.50
2022-10-31T10:44:22.022Z,12.20
2022-10-31T10:49:25.390Z,12.40
2022-10-31T10:54:28.860Z,13.70
2022-10-31T10:59:32.289Z,12.40
2022-10-31T11:04:35.643Z,11.80
2022-10-31T11:09:39.008Z,11.50
2022-10-31T11:14:42.365Z,10.80
2022-10-31T11:19:45.832Z,12.80
2022-10-31T11:24:49.282Z,10.90
2022-10-31T11:29:55.697Z,10.90
2022-10-31T11:35:03.375Z,10.10
2022-10-31T11:40:06.780Z,10.30
2022-10-31T11:45:10.188Z,10.20
2022-10-31T11:50:13.542Z,9.80
2022-10-31T11:55:16.961Z,10.10
2022-10-31T12:00:20.443Z,10.00
2022-10-31T12:05:24.071Z,10.70
2022-10-31T12:10:27.464Z,9.20
2022-10-31T12:15:30.832Z,9.80
2022-10-31T12:20:34.181Z,9.20
2022-10-31T12:25:37.543Z,8.70
2022-10-31T12:30:40.915Z,9.00
2022-10-31T12:35:44.434Z,8.70
2022-10-31T12:40:47.808Z,8.60
2022-10-31T12:45:51.504Z,9.20
2022-10-31T12:50:54.861Z,9.30
2022-10-31T12:55:58.359Z,9.40
2022-10-31T13:01:01.799Z,8.90
2022-10-31T13:06:05.595Z,8.60
2022-10-31T13:11:09.004Z,9.60
2022-10-31T13:16:12.406Z,8.70
2022-10-31T13:21:15.825Z,9.20
2022-10-31T13:26:19.186Z,8.50
2022-10-31T13:31:22.663Z,10.80
2022-10-31T13:36:26.129Z,9.10
2022-10-31T13:41:32.203Z,8.80
2022-10-31T13:46:35.670Z,8.50
2022-10-31T13:51:40.134Z,9.10
2022-10-31T13:56:43.488Z,8.50
2022-10-31T14:01:47.286Z,8.40
2022-10-31T14:06:50.808Z,8.30
2022-10-31T14:11:54.501Z,10.10
2022-10-31T14:16:58.320Z,9.20
2022-10-31T14:22:01.694Z,8.50
2022-10-31T14:27:05.119Z,8.50
2022-10-31T14:32:12.273Z,9.00
2022-10-31T14:37:16.729Z,8.80
2022-10-31T14:42:20.335Z,8.70
2022-10-31T14:47:23.716Z,9.20
2022-10-31T14:52:27.077Z,8.80
2022-10-31T14:57:30.725Z,9.10
2022-10-31T15:02:35.762Z,10.30
2022-10-31T15:07:41.095Z,9.10
2022-10-31T15:12:44.517Z,9.40
2022-10-31T15:17:50.209Z,9.00
2022-10-31T15:22:53.744Z,9.60
2022-10-31T15:27:57.174Z,8.40
2022-10-31T15:33:00.599Z,9.20
2022-10-31T15:38:05.288Z,8.60
2022-10-31T15:43:08.949Z,9.30
2022-10-31T15:48:12.346Z,9.00
2022-10-31T15:53:15.773Z,9.30
2022-10-31T15:58:19.274Z,10.30
2022-10-31T16:03:22.720Z,9.00
2022-10-31T16:08:26.289Z,10.20
2022-10-31T16:13:29.701Z,9.50
2022-10-31T16:18:33.087Z,10.20
2022-10-31T16:23:36.506Z,10.00
2022-10-31T16:28:40.372Z,9.50
2022-10-31T16:33:45.017Z,10.80
2022-10-31T16:38:48.407Z,10.30
2022-10-31T16:43:52.615Z,10.90
2022-10-31T16:53:59.637Z,10.00
2022-10-31T16:59:03.060Z,11.10
2022-10-31T17:04:06.428Z,10.10
2022-10-31T17:09:09.797Z,10.70
2022-10-31T17:14:13.172Z,10.60
2022-10-31T17:19:16.692Z,10.70
2022-10-31T17:24:20.311Z,11.20
2022-10-31T17:29:23.711Z,11.50
2022-10-31T17:34:27.179Z,11.30
2022-10-31T17:39:30.704Z,10.40
2022-10-31T17:44:34.137Z,11.30
2022-10-31T17:49:37.525Z,11.80
2022-10-31T17:54:40.951Z,11.00
2022-10-31T17:59:44.328Z,10.80
2022-10-31T18:04:47.764Z,11.50
2022-10-31T18:09:51.305Z,11.40
2022-10-31T18:14:54.739Z,11.10
2022-10-31T18:19:58.137Z,12.20
2022-10-31T18:25:02.283Z,12.40
2022-10-31T18:30:06.224Z,12.10
2022-10-31T18:35:09.648Z,11.60
2022-10-31T18:40:13.313Z,11.70
2022-10-31T18:45:32.643Z,12.00
2022-10-31T18:50:40.110Z,11.80
2022-10-31T18:55:47.245Z,12.70
2022-10-31T19:00:53.597Z,14.20
2022-10-31T19:05:57.674Z,13.30
2022-10-31T19:11:01.120Z,14.90
2022-10-31T19:16:04.766Z,15.60
2022-10-31T19:21:08.225Z,15.00
2022-10-31T19:26:11.728Z,14.60
2022-10-31T19:31:15.140Z,15.10
2022-10-31T19:36:19.164Z,14.90
2022-10-31T19:41:22.602Z,14.70
2022-10-31T19:46:52.402Z,14.40
2022-10-31T19:51:49.493Z,15.70
2022-10-31T19:56:52.912Z,14.60
2022-10-31T20:01:56.405Z,16.70
2022-10-31T20:06:59.788Z,16.40
2022-10-31T20:12:03.282Z,16.80
2022-10-31T20:17:06.692Z,17.60
2022-10-31T20:22:11.000Z,18.60
2022-10-31T20:27:14.694Z,16.40
2022-10-31T20:32:18.091Z,17.20
2022-10-31T20:37:21.588Z,17.50
2022-10-31T20:42:25.095Z,19.80
2022-10-31T20:47:28.477Z,19.00
2022-10-31T20:52:31.868Z,20.40
2022-10-31T20:57:35.227Z,18.20
2022-10-31T21:02:38.823Z,20.40
2022-10-31T21:07:42.354Z,19.10
2022-10-31T21:12:45.780Z,22.40
2022-10-31T21:17:49.212Z,22.40
2022-10-31T21:22:54.611Z,22.00
2022-10-31T21:27:58.237Z,21.50
2022-10-31T21:33:01.789Z,22.20
2022-10-31T21:38:05.147Z,20.50
2022-10-31T21:43:08.638Z,22.80
2022-10-31T21:48:12.024Z,24.10
2022-10-31T21:53:33.288Z,22.90
2022-10-31T21:58:38.562Z,23.00
2022-10-31T22:03:42.224Z,23.10
2022-10-31T22:08:45.690Z,22.90
2022-10-31T22:13:49.131Z,21.60
2022-10-31T22:18:52.885Z,23.40
2022-10-31T22:23:56.257Z,24.30
2022-10-31T22:29:01.247Z,23.70
2022-10-31T22:34:04.631Z,23.50
2022-10-31T22:39:08.013Z,24.20
2022-10-31T22:44:11.379Z,24.50
2022-10-31T22:49:15.248Z,23.30
2022-10-31T22:54:18.819Z,25.30
2022-10-31T22:59:22.215Z,26.10
2022-10-31T23:04:25.603Z,25.50
2022-10-31T23:09:30.069Z,26.50
2022-10-31T23:14:33.508Z,25.00
2022-10-31T23:19:36.893Z,25.70
2022-10-31T23:24:40.262Z,26.60
2022-10-31T23:29:44.299Z,25.80
2022-10-31T23:34:47.699Z,27.30
2022-10-31T23:39:51.062Z,27.00
2022-10-31T23:44:54.458Z,28.20
2022-10-31T23:49:58.001Z,26.20
2022-10-31T23:55:01.380Z,27.10
